OETRLTFH

Guest
Details From OETR - TURAIF
To LTFH - CARSAMBA
Flight Number -
Tags decoded
Created
Modified
Stats Distance 584 nm / 1,081 km
Max Altitude 0 ft / 0 m
Waypoints 2
Social Downloads 0
Likes 0
Share VATSIM

Download

Looking for another format? Having issues loading an existing format? Contact us
Advertisement - Login to hide

Notes

Requested: OETR GMMW LTFH

Route

OETR LTFH

ID Type Via Altitude Latitude Longitude Leg Dist Tot Dist Heading (true) Name
O OETR APT - 0 ft / 0 m 31.69268˚ 38.73127˚ - 0 nm - TURAIF
O LTFH APT - 0 ft / 0 m 41.25448˚ 36.56710˚ 583 nm 583 nm 350° / 349° CARSAMBA

Altitude Profile

Advertisement - Login to hide

Weather


0- 5 10 15 20 25 30 35+ Temperature / ° C

Clouds and Precipitation
Forecast for 2017-12-11 12:00 UTC. Updated 2 hours ago

Ground ~20,000 ft ~40,000 ft Winds

OETR

Details ICAO OETR (TUI)
Name TURAIF
Region Saudi Arabia
Timezone Asia/Riyadh (UTC+3.0)
Stats Elevation 2,803 ft / 854 m (AMSL)
Location 31.692682° 38.731266°
Runways 1
Magnetic Variation 4.619° E

METAR

OETR 111200Z 01008KT CAVOK 20/M06 Q1024

Decode

TAF

Not found

Departure Runways

ID Width Length Bearing (true) Bearing (mag) Surface Threshold Offset Overrun Length
10 148 ft / 45 m 9,828 ft / 2,996 m 105.47° 100.85° Asphalt 0 ft / 0 m 185 ft / 56 m
28 148 ft / 45 m 9,828 ft / 2,996 m 285.48° 280.86° Asphalt 0 ft / 0 m 185 ft / 56 m

LTFH

Details ICAO LTFH (SZF)
Name CARSAMBA
Region Turkey
Timezone Europe/Istanbul (UTC+3.0)
Stats Elevation 18 ft / 5 m (AMSL)
Location 41.254480° 36.567103°
Runways 1
Magnetic Variation 6.199° E

METAR

LTFH 111250Z 05006KT CAVOK 13/08 Q1025 NOSIG

Decode

TAF

Not found

Destination Runways

ID Width Length Bearing (true) Bearing (mag) Surface Threshold Offset Overrun Length
13 148 ft / 45 m 9,798 ft / 2,986 m 133.61° 127.41° Concrete 0 ft / 0 m 195 ft / 59 m
31 148 ft / 45 m 9,798 ft / 2,986 m 313.63° 307.43° Concrete 0 ft / 0 m 195 ft / 59 m

Approach Navaids

Runway Type Ident Frequency Range Bearing (true) Bearing (mag) Slope Elevation
13 Localiser ICRM 110.10 MHz 18 nm / 33 km 133.64° 127.44° - 18 ft / 5 m (AMSL)
13 Glidescope ICRM 110.10 MHz 10 nm / 19 km 133.62° 127.42° 3.00° 18 ft / 5 m (AMSL)